sensor_id;sensor_type;location;lat;lon;timestamp;pressure;altitude;pressure_sealevel;temperature;humidity
31357;BME280;60001;48.404;11.738;2023-06-10T00:00:58;95915.72;;;20.86;52.46
31357;BME280;60001;48.404;11.738;2023-06-10T00:02:30;95921.53;;;20.88;52.78
31357;BME280;60001;48.404;11.738;2023-06-10T00:04:00;95922.38;;;20.80;53.23
31357;BME280;60001;48.404;11.738;2023-06-10T00:05:33;95915.41;;;20.79;53.32
31357;BME280;60001;48.404;11.738;2023-06-10T00:07:05;95913.03;;;20.86;52.58
31357;BME280;60001;48.404;11.738;2023-06-10T00:08:38;95915.38;;;20.88;53.12
31357;BME280;60001;48.404;11.738;2023-06-10T00:10:11;95918.41;;;20.86;52.95
31357;BME280;60001;48.404;11.738;2023-06-10T00:11:43;95919.38;;;20.82;52.94
31357;BME280;60001;48.404;11.738;2023-06-10T00:13:14;95919.81;;;20.84;53.16
31357;BME280;60001;48.404;11.738;2023-06-10T00:14:46;95914.00;;;20.82;52.77
31357;BME280;60001;48.404;11.738;2023-06-10T00:16:20;95910.06;;;20.79;52.95
31357;BME280;60001;48.404;11.738;2023-06-10T00:17:52;95918.44;;;20.77;53.20
31357;BME280;60001;48.404;11.738;2023-06-10T00:19:25;95918.31;;;20.74;53.87
31357;BME280;60001;48.404;11.738;2023-06-10T00:21:01;95917.53;;;20.73;53.80
31357;BME280;60001;48.404;11.738;2023-06-10T00:22:34;95916.59;;;20.69;54.07
31357;BME280;60001;48.404;11.738;2023-06-10T00:24:07;95918.50;;;20.69;53.98
31357;BME280;60001;48.404;11.738;2023-06-10T00:25:42;95924.19;;;20.67;53.86
31357;BME280;60001;48.404;11.738;2023-06-10T00:27:14;95922.47;;;20.63;54.28
31357;BME280;60001;48.404;11.738;2023-06-10T00:28:45;95915.22;;;20.63;54.17
31357;BME280;60001;48.404;11.738;2023-06-10T00:30:17;95922.47;;;20.63;53.92
31357;BME280;60001;48.404;11.738;2023-06-10T00:31:48;95917.44;;;20.61;54.53
31357;BME280;60001;48.404;11.738;2023-06-10T00:33:20;95908.34;;;20.53;54.18
31357;BME280;60001;48.404;11.738;2023-06-10T00:34:51;95918.06;;;20.58;54.51
31357;BME280;60001;48.404;11.738;2023-06-10T00:36:24;95915.59;;;20.53;54.26
31357;BME280;60001;48.404;11.738;2023-06-10T00:37:57;95917.63;;;20.56;54.50
31357;BME280;60001;48.404;11.738;2023-06-10T00:39:27;95914.16;;;20.56;54.45
31357;BME280;60001;48.404;11.738;2023-06-10T00:40:59;95917.00;;;20.59;54.37
31357;BME280;60001;48.404;11.738;2023-06-10T00:42:31;95911.75;;;20.63;54.69
31357;BME280;60001;48.404;11.738;2023-06-10T00:44:03;95912.41;;;20.60;54.62
31357;BME280;60001;48.404;11.738;2023-06-10T00:45:35;95900.13;;;20.50;54.99
31357;BME280;60001;48.404;11.738;2023-06-10T00:47:07;95909.25;;;20.58;54.93
31357;BME280;60001;48.404;11.738;2023-06-10T00:48:40;95909.13;;;20.54;54.46
31357;BME280;60001;48.404;11.738;2023-06-10T00:50:12;95911.03;;;20.53;55.11
31357;BME280;60001;48.404;11.738;2023-06-10T00:51:46;95907.56;;;20.53;55.08
31357;BME280;60001;48.404;11.738;2023-06-10T00:53:16;95910.75;;;20.46;55.07
31357;BME280;60001;48.404;11.738;2023-06-10T00:54:49;95908.41;;;20.45;55.51
31357;BME280;60001;48.404;11.738;2023-06-10T00:56:22;95912.31;;;20.47;55.25
31357;BME280;60001;48.404;11.738;2023-06-10T00:57:53;95910.25;;;20.44;55.45
31357;BME280;60001;48.404;11.738;2023-06-10T00:59:25;95908.84;;;20.47;55.04
31357;BME280;60001;48.404;11.738;2023-06-10T01:00:57;95898.59;;;20.40;54.89
31357;BME280;60001;48.404;11.738;2023-06-10T01:02:29;95910.91;;;20.41;55.19
31357;BME280;60001;48.404;11.738;2023-06-10T01:04:01;95909.31;;;20.40;55.30
31357;BME280;60001;48.404;11.738;2023-06-10T01:05:33;95902.84;;;20.41;55.46
31357;BME280;60001;48.404;11.738;2023-06-10T01:07:16;95905.38;;;20.46;55.28
31357;BME280;60001;48.404;11.738;2023-06-10T01:08:55;95891.34;;;20.41;55.54
31357;BME280;60001;48.404;11.738;2023-06-10T01:10:33;95897.03;;;20.39;55.07
31357;BME280;60001;48.404;11.738;2023-06-10T01:12:12;95903.50;;;20.38;55.31
31357;BME280;60001;48.404;11.738;2023-06-10T01:13:50;95900.22;;;20.33;55.30
31357;BME280;60001;48.404;11.738;2023-06-10T01:15:22;95900.03;;;20.38;55.96
31357;BME280;60001;48.404;11.738;2023-06-10T01:16:53;95907.94;;;20.34;55.51
31357;BME280;60001;48.404;11.738;2023-06-10T01:18:30;95911.56;;;20.30;56.26
31357;BME280;60001;48.404;11.738;2023-06-10T01:20:01;95915.03;;;20.39;55.47
31357;BME280;60001;48.404;11.738;2023-06-10T01:21:43;95908.88;;;20.38;55.55
31357;BME280;60001;48.404;11.738;2023-06-10T01:23:18;95905.72;;;20.36;56.02
31357;BME280;60001;48.404;11.738;2023-06-10T01:24:50;95915.97;;;20.34;55.61
31357;BME280;60001;48.404;11.738;2023-06-10T01:26:28;95907.47;;;20.32;56.11
31357;BME280;60001;48.404;11.738;2023-06-10T01:28:06;95906.81;;;20.35;55.80
31357;BME280;60001;48.404;11.738;2023-06-10T01:29:43;95907.94;;;20.34;56.24
31357;BME280;60001;48.404;11.738;2023-06-10T01:31:20;95920.09;;;20.32;56.69
31357;BME280;60001;48.404;11.738;2023-06-10T01:32:58;95912.22;;;20.26;56.86
31357;BME280;60001;48.404;11.738;2023-06-10T01:34:32;95909.41;;;20.23;56.95
31357;BME280;60001;48.404;11.738;2023-06-10T01:36:06;95915.53;;;20.23;56.38
31357;BME280;60001;48.404;11.738;2023-06-10T01:37:43;95912.88;;;20.23;56.25
31357;BME280;60001;48.404;11.738;2023-06-10T01:39:18;95905.34;;;20.17;56.52
31357;BME280;60001;48.404;11.738;2023-06-10T01:40:53;95919.06;;;20.15;56.78
31357;BME280;60001;48.404;11.738;2023-06-10T01:42:25;95906.91;;;20.18;56.42
31357;BME280;60001;48.404;11.738;2023-06-10T01:43:57;95913.06;;;20.18;57.02
31357;BME280;60001;48.404;11.738;2023-06-10T01:45:28;95916.53;;;20.19;56.40
31357;BME280;60001;48.404;11.738;2023-06-10T01:46:59;95912.13;;;20.14;57.08
31357;BME280;60001;48.404;11.738;2023-06-10T01:48:31;95908.69;;;20.05;57.17
31357;BME280;60001;48.404;11.738;2023-06-10T01:50:04;95915.25;;;20.16;56.76
31357;BME280;60001;48.404;11.738;2023-06-10T01:51:36;95923.31;;;20.16;57.21
31357;BME280;60001;48.404;11.738;2023-06-10T01:53:09;95917.94;;;20.16;57.51
31357;BME280;60001;48.404;11.738;2023-06-10T01:54:41;95925.69;;;20.09;57.61
31357;BME280;60001;48.404;11.738;2023-06-10T01:56:12;95911.06;;;20.07;57.16
31357;BME280;60001;48.404;11.738;2023-06-10T01:57:47;95923.97;;;20.13;57.30
31357;BME280;60001;48.404;11.738;2023-06-10T01:59:18;95916.88;;;20.09;57.20
31357;BME280;60001;48.404;11.738;2023-06-10T02:00:49;95915.91;;;20.13;57.01
31357;BME280;60001;48.404;11.738;2023-06-10T02:02:21;95915.13;;;20.13;57.44
31357;BME280;60001;48.404;11.738;2023-06-10T02:03:52;95924.44;;;20.07;57.23
31357;BME280;60001;48.404;11.738;2023-06-10T02:05:24;95922.28;;;20.00;57.40
31357;BME280;60001;48.404;11.738;2023-06-10T02:06:56;95924.94;;;20.00;57.44
31357;BME280;60001;48.404;11.738;2023-06-10T02:08:29;95924.50;;;19.98;57.88
31357;BME280;60001;48.404;11.738;2023-06-10T02:10:01;95913.44;;;19.99;57.45
31357;BME280;60001;48.404;11.738;2023-06-10T02:11:32;95919.94;;;19.90;58.04
31357;BME280;60001;48.404;11.738;2023-06-10T02:13:04;95920.88;;;19.94;57.32
31357;BME280;60001;48.404;11.738;2023-06-10T02:14:36;95916.16;;;19.91;58.31
31357;BME280;60001;48.404;11.738;2023-06-10T02:16:08;95927.22;;;19.89;58.39
31357;BME280;60001;48.404;11.738;2023-06-10T02:17:43;95911.63;;;19.83;58.06
31357;BME280;60001;48.404;11.738;2023-06-10T02:19:15;95913.03;;;19.89;57.89
31357;BME280;60001;48.404;11.738;2023-06-10T02:20:47;95925.75;;;19.92;58.18
31357;BME280;60001;48.404;11.738;2023-06-10T02:22:20;95920.09;;;19.93;58.30
31357;BME280;60001;48.404;11.738;2023-06-10T02:23:53;95921.84;;;19.89;57.79
31357;BME280;60001;48.404;11.738;2023-06-10T02:25:24;95924.34;;;19.94;57.92
31357;BME280;60001;48.404;11.738;2023-06-10T02:26:55;95925.91;;;19.95;58.06
31357;BME280;60001;48.404;11.738;2023-06-10T02:28:27;95923.88;;;19.92;57.53
31357;BME280;60001;48.404;11.738;2023-06-10T02:29:58;95922.31;;;19.91;58.16
31357;BME280;60001;48.404;11.738;2023-06-10T02:31:30;95923.75;;;19.89;57.83
31357;BME280;60001;48.404;11.738;2023-06-10T02:33:01;95926.59;;;19.84;58.30
31357;BME280;60001;48.404;11.738;2023-06-10T02:34:33;95921.56;;;19.82;58.42
31357;BME280;60001;48.404;11.738;2023-06-10T02:36:06;95920.13;;;19.85;57.88
31357;BME280;60001;48.404;11.738;2023-06-10T02:37:38;95922.63;;;19.90;57.69
31357;BME280;60001;48.404;11.738;2023-06-10T02:39:10;95919.66;;;19.83;58.12
31357;BME280;60001;48.404;11.738;2023-06-10T02:40:42;95928.66;;;19.69;58.95
31357;BME280;60001;48.404;11.738;2023-06-10T02:42:13;95924.72;;;19.76;59.04
31357;BME280;60001;48.404;11.738;2023-06-10T02:43:45;95922.81;;;19.76;59.07
31357;BME280;60001;48.404;11.738;2023-06-10T02:45:16;95925.19;;;19.78;58.22
31357;BME280;60001;48.404;11.738;2023-06-10T02:46:48;95934.63;;;19.84;57.90
31357;BME280;60001;48.404;11.738;2023-06-10T02:48:19;95928.63;;;19.78;58.13
31357;BME280;60001;48.404;11.738;2023-06-10T02:49:51;95925.31;;;19.81;58.60
31357;BME280;60001;48.404;11.738;2023-06-10T02:51:22;95917.78;;;19.66;58.64
31357;BME280;60001;48.404;11.738;2023-06-10T02:52:54;95930.84;;;19.67;58.82
31357;BME280;60001;48.404;11.738;2023-06-10T02:54:26;95927.88;;;19.69;58.92
31357;BME280;60001;48.404;11.738;2023-06-10T02:55:58;95922.53;;;19.69;58.44
31357;BME280;60001;48.404;11.738;2023-06-10T02:57:30;95933.38;;;19.73;58.51
31357;BME280;60001;48.404;11.738;2023-06-10T02:59:01;95938.59;;;19.69;58.47
31357;BME280;60001;48.404;11.738;2023-06-10T03:00:33;95933.41;;;19.64;58.99
31357;BME280;60001;48.404;11.738;2023-06-10T03:02:06;95934.66;;;19.66;58.62
31357;BME280;60001;48.404;11.738;2023-06-10T03:03:37;95934.97;;;19.65;58.98
31357;BME280;60001;48.404;11.738;2023-06-10T03:05:11;95935.13;;;19.68;59.18
31357;BME280;60001;48.404;11.738;2023-06-10T03:06:43;95931.00;;;19.54;59.34
31357;BME280;60001;48.404;11.738;2023-06-10T03:08:15;95933.56;;;19.59;58.94
31357;BME280;60001;48.404;11.738;2023-06-10T03:09:48;95926.63;;;19.58;59.13
31357;BME280;60001;48.404;11.738;2023-06-10T03:11:19;95938.75;;;19.64;58.73
31357;BME280;60001;48.404;11.738;2023-06-10T03:12:51;95940.50;;;19.60;59.00
31357;BME280;60001;48.404;11.738;2023-06-10T03:14:22;95944.59;;;19.57;59.71
31357;BME280;60001;48.404;11.738;2023-06-10T03:15:55;95939.25;;;19.57;58.99
31357;BME280;60001;48.404;11.738;2023-06-10T03:17:27;95943.31;;;19.55;59.16
31357;BME280;60001;48.404;11.738;2023-06-10T03:18:57;95932.91;;;19.53;59.02
31357;BME280;60001;48.404;11.738;2023-06-10T03:20:29;95938.91;;;19.50;59.16
31357;BME280;60001;48.404;11.738;2023-06-10T03:22:08;95939.69;;;19.51;59.80
31357;BME280;60001;48.404;11.738;2023-06-10T03:23:39;95947.72;;;19.51;59.35
31357;BME280;60001;48.404;11.738;2023-06-10T03:25:12;95940.16;;;19.53;59.63
31357;BME280;60001;48.404;11.738;2023-06-10T03:26:45;95940.16;;;19.53;59.28
31357;BME280;60001;48.404;11.738;2023-06-10T03:28:17;95942.69;;;19.49;59.55
31357;BME280;60001;48.404;11.738;2023-06-10T03:29:48;95935.78;;;19.48;59.90
31357;BME280;60001;48.404;11.738;2023-06-10T03:31:20;95937.94;;;19.46;60.42
31357;BME280;60001;48.404;11.738;2023-06-10T03:32:51;95944.75;;;19.43;60.26
31357;BME280;60001;48.404;11.738;2023-06-10T03:34:23;95941.75;;;19.45;59.69
31357;BME280;60001;48.404;11.738;2023-06-10T03:35:54;95944.41;;;19.45;59.65
31357;BME280;60001;48.404;11.738;2023-06-10T03:37:25;95940.94;;;19.44;59.81
31357;BME280;60001;48.404;11.738;2023-06-10T03:38:57;95945.84;;;19.34;60.50
31357;BME280;60001;48.404;11.738;2023-06-10T03:40:29;95949.00;;;19.36;60.21
31357;BME280;60001;48.404;11.738;2023-06-10T03:42:02;95941.44;;;19.38;60.24
31357;BME280;60001;48.404;11.738;2023-06-10T03:43:33;95950.25;;;19.38;60.51
31357;BME280;60001;48.404;11.738;2023-06-10T03:45:06;95953.25;;;19.37;60.73
31357;BME280;60001;48.404;11.738;2023-06-10T03:46:36;95957.47;;;19.47;60.01
31357;BME280;60001;48.404;11.738;2023-06-10T03:48:08;95955.91;;;19.45;60.51
31357;BME280;60001;48.404;11.738;2023-06-10T03:49:41;95947.41;;;19.43;60.20
31357;BME280;60001;48.404;11.738;2023-06-10T03:51:12;95953.22;;;19.45;60.25
31357;BME280;60001;48.404;11.738;2023-06-10T03:52:43;95953.22;;;19.45;60.44
31357;BME280;60001;48.404;11.738;2023-06-10T03:54:16;95949.13;;;19.39;60.77
31357;BME280;60001;48.404;11.738;2023-06-10T03:55:49;95960.16;;;19.47;60.31
31357;BME280;60001;48.404;11.738;2023-06-10T03:57:20;95957.97;;;19.40;60.71
31357;BME280;60001;48.404;11.738;2023-06-10T03:58:52;95961.91;;;19.42;60.61
31357;BME280;60001;48.404;11.738;2023-06-10T04:00:24;95961.25;;;19.45;60.31
31357;BME280;60001;48.404;11.738;2023-06-10T04:01:56;95961.44;;;19.40;60.71
31357;BME280;60001;48.404;11.738;2023-06-10T04:03:28;95957.97;;;19.40;60.74
31357;BME280;60001;48.404;11.738;2023-06-10T04:04:59;95955.44;;;19.43;60.88
31357;BME280;60001;48.404;11.738;2023-06-10T04:06:31;95963.16;;;19.45;60.96
31357;BME280;60001;48.404;11.738;2023-06-10T04:08:03;95959.38;;;19.46;60.78
31357;BME280;60001;48.404;11.738;2023-06-10T04:09:35;95964.59;;;19.42;60.67
31357;BME280;60001;48.404;11.738;2023-06-10T04:11:09;95967.41;;;19.46;60.41
31357;BME280;60001;48.404;11.738;2023-06-10T04:12:41;95971.03;;;19.50;60.61
31357;BME280;60001;48.404;11.738;2023-06-10T04:14:13;95975.16;;;19.48;60.86
31357;BME280;60001;48.404;11.738;2023-06-10T04:15:45;95974.50;;;19.51;60.57
31357;BME280;60001;48.404;11.738;2023-06-10T04:17:17;95978.75;;;19.52;60.23
31357;BME280;60001;48.404;11.738;2023-06-10T04:18:48;95971.38;;;19.49;60.84
31357;BME280;60001;48.404;11.738;2023-06-10T04:20:20;95972.28;;;19.53;60.32
31357;BME280;60001;48.404;11.738;2023-06-10T04:21:51;95977.53;;;19.58;60.80
31357;BME280;60001;48.404;11.738;2023-06-10T04:23:22;95969.66;;;19.61;60.13
31357;BME280;60001;48.404;11.738;2023-06-10T04:24:55;95973.25;;;19.65;60.57
31357;BME280;60001;48.404;11.738;2023-06-10T04:26:27;95974.81;;;19.66;60.72
31357;BME280;60001;48.404;11.738;2023-06-10T04:27:59;95981.28;;;19.57;61.00
31357;BME280;60001;48.404;11.738;2023-06-10T04:29:31;95976.72;;;19.57;61.93
31357;BME280;60001;48.404;11.738;2023-06-10T04:31:02;95982.38;;;19.56;61.44
31357;BME280;60001;48.404;11.738;2023-06-10T04:32:34;95969.94;;;19.51;61.00
31357;BME280;60001;48.404;11.738;2023-06-10T04:34:06;95985.88;;;19.65;62.04
31357;BME280;60001;48.404;11.738;2023-06-10T04:35:38;95992.63;;;19.71;61.80
31357;BME280;60001;48.404;11.738;2023-06-10T04:37:09;95984.44;;;19.67;61.76
31357;BME280;60001;48.404;11.738;2023-06-10T04:38:41;95989.00;;;19.76;61.55
31357;BME280;60001;48.404;11.738;2023-06-10T04:40:13;95983.47;;;19.81;61.41
31357;BME280;60001;48.404;11.738;2023-06-10T04:41:47;95980.16;;;19.84;61.69
31357;BME280;60001;48.404;11.738;2023-06-10T04:43:19;95985.66;;;19.87;61.92
31357;BME280;60001;48.404;11.738;2023-06-10T04:44:51;95985.03;;;19.90;62.27
31357;BME280;60001;48.404;11.738;2023-06-10T04:46:22;95986.13;;;19.98;61.34
31357;BME280;60001;48.404;11.738;2023-06-10T04:47:53;95978.09;;;19.98;61.82
31357;BME280;60001;48.404;11.738;2023-06-10T04:49:26;95988.31;;;20.05;60.46
31357;BME280;60001;48.404;11.738;2023-06-10T04:50:59;95974.75;;;20.01;60.91
31357;BME280;60001;48.404;11.738;2023-06-10T04:52:30;95995.53;;;20.13;60.63
31357;BME280;60001;48.404;11.738;2023-06-10T04:54:04;95991.59;;;20.19;60.22
31357;BME280;60001;48.404;11.738;2023-06-10T04:55:36;95998.06;;;20.09;59.77
31357;BME280;60001;48.404;11.738;2023-06-10T04:57:09;95994.28;;;20.19;60.08
31357;BME280;60001;48.404;11.738;2023-06-10T04:58:41;95992.03;;;20.21;60.77
31357;BME280;60001;48.404;11.738;2023-06-10T05:00:14;95989.72;;;20.11;60.26
31357;BME280;60001;48.404;11.738;2023-06-10T05:01:46;95993.16;;;20.20;60.35
31357;BME280;60001;48.404;11.738;2023-06-10T05:03:17;95999.13;;;20.25;60.65
31357;BME280;60001;48.404;11.738;2023-06-10T05:04:49;95996.78;;;20.24;60.05
31357;BME280;60001;48.404;11.738;2023-06-10T05:06:21;96001.50;;;20.27;59.79
31357;BME280;60001;48.404;11.738;2023-06-10T05:07:53;95993.44;;;20.27;59.86
31357;BME280;60001;48.404;11.738;2023-06-10T05:09:25;95995.19;;;20.23;60.01
31357;BME280;60001;48.404;11.738;2023-06-10T05:10:57;96000.38;;;20.28;59.94
31357;BME280;60001;48.404;11.738;2023-06-10T05:12:31;95993.91;;;20.29;59.88
31357;BME280;60001;48.404;11.738;2023-06-10T05:14:02;96001.66;;;20.31;60.75
31357;BME280;60001;48.404;11.738;2023-06-10T05:15:34;95998.97;;;20.22;60.73
31357;BME280;60001;48.404;11.738;2023-06-10T05:17:06;95996.78;;;20.15;60.68
31357;BME280;60001;48.404;11.738;2023-06-10T05:18:37;95990.19;;;20.13;60.28
31357;BME280;60001;48.404;11.738;2023-06-10T05:20:09;96001.84;;;20.17;60.56
31357;BME280;60001;48.404;11.738;2023-06-10T05:21:41;96004.84;;;20.15;60.09
31357;BME280;60001;48.404;11.738;2023-06-10T05:23:13;96003.44;;;20.09;60.24
31357;BME280;60001;48.404;11.738;2023-06-10T05:24:45;96005.81;;;20.11;60.88
31357;BME280;60001;48.404;11.738;2023-06-10T05:26:17;96007.06;;;20.13;61.42
31357;BME280;60001;48.404;11.738;2023-06-10T05:27:50;96011.16;;;20.11;61.03
31357;BME280;60001;48.404;11.738;2023-06-10T05:29:22;96013.34;;;20.09;61.33
31357;BME280;60001;48.404;11.738;2023-06-10T05:30:53;96011.94;;;20.11;60.48
31357;BME280;60001;48.404;11.738;2023-06-10T05:32:25;96012.13;;;20.06;61.14
31357;BME280;60001;48.404;11.738;2023-06-10T05:33:56;96013.84;;;20.11;60.82
31357;BME280;60001;48.404;11.738;2023-06-10T05:35:28;96010.88;;;20.04;61.64
31357;BME280;60001;48.404;11.738;2023-06-10T05:36:59;96009.09;;;20.08;60.57
31357;BME280;60001;48.404;11.738;2023-06-10T05:38:33;96010.88;;;20.04;61.21
31357;BME280;60001;48.404;11.738;2023-06-10T05:40:06;96015.91;;;20.05;61.49
31357;BME280;60001;48.404;11.738;2023-06-10T05:41:37;96010.88;;;20.04;61.34
31357;BME280;60001;48.404;11.738;2023-06-10T05:43:10;96017.16;;;20.08;61.70
31357;BME280;60001;48.404;11.738;2023-06-10T05:44:42;96008.19;;;20.04;61.63
31357;BME280;60001;48.404;11.738;2023-06-10T05:46:14;96008.19;;;20.04;61.83
31357;BME280;60001;48.404;11.738;2023-06-10T05:47:45;96011.34;;;20.06;60.83
31357;BME280;60001;48.404;11.738;2023-06-10T05:49:16;96011.50;;;20.01;61.07
31357;BME280;60001;48.404;11.738;2023-06-10T05:50:48;96010.09;;;19.94;62.03
31357;BME280;60001;48.404;11.738;2023-06-10T05:52:20;96002.06;;;19.86;62.03
31357;BME280;60001;48.404;11.738;2023-06-10T05:53:51;96006.34;;;19.78;62.63
31357;BME280;60001;48.404;11.738;2023-06-10T05:55:23;96005.53;;;19.86;62.51
31357;BME280;60001;48.404;11.738;2023-06-10T05:56:55;96005.06;;;19.84;62.48
31357;BME280;60001;48.404;11.738;2023-06-10T05:58:28;96005.06;;;19.84;61.43
31357;BME280;60001;48.404;11.738;2023-06-10T06:00:00;96012.16;;;19.89;62.23
31357;BME280;60001;48.404;11.738;2023-06-10T06:01:32;96011.66;;;19.95;62.12
31357;BME280;60001;48.404;11.738;2023-06-10T06:03:03;96007.25;;;19.91;62.05
31357;BME280;60001;48.404;11.738;2023-06-10T06:04:34;96010.06;;;20.12;61.60
31357;BME280;60001;48.404;11.738;2023-06-10T06:06:06;96006.72;;;20.15;61.29
31357;BME280;60001;48.404;11.738;2023-06-10T06:07:38;96011.81;;;19.99;61.29
31357;BME280;60001;48.404;11.738;2023-06-10T06:09:10;96012.13;;;20.06;62.44
31357;BME280;60001;48.404;11.738;2023-06-10T06:10:42;96013.84;;;20.02;61.10
31357;BME280;60001;48.404;11.738;2023-06-10T06:12:13;96016.38;;;19.98;61.10
31357;BME280;60001;48.404;11.738;2023-06-10T06:13:46;96001.59;;;19.84;61.22
31357;BME280;60001;48.404;11.738;2023-06-10T06:15:18;96015.13;;;20.05;61.41
31357;BME280;60001;48.404;11.738;2023-06-10T06:16:50;96014.75;;;20.23;61.41
31357;BME280;60001;48.404;11.738;2023-06-10T06:18:22;96013.75;;;20.37;61.56
31357;BME280;60001;48.404;11.738;2023-06-10T06:19:54;96011.84;;;20.37;60.50
31357;BME280;60001;48.404;11.738;2023-06-10T06:21:26;96016.31;;;20.33;60.34
31357;BME280;60001;48.404;11.738;2023-06-10T06:22:57;96020.72;;;20.46;61.08
31357;BME280;60001;48.404;11.738;2023-06-10T06:24:29;96017.19;;;20.55;61.54
31357;BME280;60001;48.404;11.738;2023-06-10T06:26:01;95999.22;;;20.55;60.61
31357;BME280;60001;48.404;11.738;2023-06-10T06:27:33;96015.25;;;20.64;60.76
31357;BME280;60001;48.404;11.738;2023-06-10T06:29:06;96020.94;;;20.62;59.67
31357;BME280;60001;48.404;11.738;2023-06-10T06:30:38;96015.25;;;20.64;60.57
31357;BME280;60001;48.404;11.738;2023-06-10T06:32:09;96011.47;;;20.65;59.77
31357;BME280;60001;48.404;11.738;2023-06-10T06:33:41;96015.88;;;20.69;60.12
31357;BME280;60001;48.404;11.738;2023-06-10T06:35:13;96010.16;;;20.71;60.70
31357;BME280;60001;48.404;11.738;2023-06-10T06:36:45;96017.03;;;20.51;60.87
31357;BME280;60001;48.404;11.738;2023-06-10T06:38:16;96012.13;;;20.62;60.04
31357;BME280;60001;48.404;11.738;2023-06-10T06:39:48;96017.16;;;20.63;61.84
31357;BME280;60001;48.404;11.738;2023-06-10T06:41:20;96016.59;;;20.78;62.30
31357;BME280;60001;48.404;11.738;2023-06-10T06:42:52;96026.19;;;20.88;61.08
31357;BME280;60001;48.404;11.738;2023-06-10T06:44:25;96018.94;;;20.89;59.74
31357;BME280;60001;48.404;11.738;2023-06-10T06:45:57;96017.09;;;20.80;60.37
31357;BME280;60001;48.404;11.738;2023-06-10T06:47:29;96012.00;;;20.88;60.31
31357;BME280;60001;48.404;11.738;2023-06-10T06:49:01;96026.09;;;21.05;59.98
31357;BME280;60001;48.404;11.738;2023-06-10T06:50:32;96018.47;;;21.16;60.08
31357;BME280;60001;48.404;11.738;2023-06-10T06:52:05;96009.47;;;21.12;59.06
31357;BME280;60001;48.404;11.738;2023-06-10T06:53:37;96019.97;;;21.26;59.85
31357;BME280;60001;48.404;11.738;2023-06-10T06:55:14;96022.81;;;21.21;59.02
31357;BME280;60001;48.404;11.738;2023-06-10T06:56:46;96016.56;;;21.17;59.27
31357;BME280;60001;48.404;11.738;2023-06-10T06:58:18;96022.66;;;21.26;59.00
31357;BME280;60001;48.404;11.738;2023-06-10T06:59:50;96024.38;;;21.30;59.46
31357;BME280;60001;48.404;11.738;2023-06-10T07:01:25;96026.09;;;21.35;59.54
31357;BME280;60001;48.404;11.738;2023-06-10T07:02:57;96022.34;;;21.48;60.01
31357;BME280;60001;48.404;11.738;2023-06-10T07:04:29;96024.06;;;21.53;59.83
31357;BME280;60001;48.404;11.738;2023-06-10T07:06:01;96026.66;;;21.61;58.98
31357;BME280;60001;48.404;11.738;2023-06-10T07:07:33;96025.25;;;21.64;58.94
31357;BME280;60001;48.404;11.738;2023-06-10T07:09:05;96016.41;;;21.64;59.49
31357;BME280;60001;48.404;11.738;2023-06-10T07:10:37;96022.13;;;21.74;59.55
31357;BME280;60001;48.404;11.738;2023-06-10T07:12:09;96023.94;;;21.70;58.80
31357;BME280;60001;48.404;11.738;2023-06-10T07:13:41;96020.66;;;21.44;59.48
31357;BME280;60001;48.404;11.738;2023-06-10T07:15:14;96025.88;;;21.40;58.24
31357;BME280;60001;48.404;11.738;2023-06-10T07:16:46;96027.34;;;21.58;58.79
31357;BME280;60001;48.404;11.738;2023-06-10T07:18:18;96026.03;;;21.65;59.85
31357;BME280;60001;48.404;11.738;2023-06-10T07:19:50;96029.09;;;21.75;58.88
31357;BME280;60001;48.404;11.738;2023-06-10T07:21:22;96024.38;;;21.72;58.55
31357;BME280;60001;48.404;11.738;2023-06-10T07:22:54;96023.88;;;21.58;57.98
31357;BME280;60001;48.404;11.738;2023-06-10T07:24:26;96021.56;;;21.69;58.92
31357;BME280;60001;48.404;11.738;2023-06-10T07:25:58;96021.81;;;21.76;58.88
31357;BME280;60001;48.404;11.738;2023-06-10T07:27:30;96019.84;;;21.85;59.25
31357;BME280;60001;48.404;11.738;2023-06-10T07:29:01;96025.56;;;21.96;59.85
31357;BME280;60001;48.404;11.738;2023-06-10T07:30:34;96024.59;;;22.00;59.85
31357;BME280;60001;48.404;11.738;2023-06-10T07:32:07;96026.88;;;22.10;59.85
31357;BME280;60001;48.404;11.738;2023-06-10T07:33:39;96032.19;;;22.19;59.35
31357;BME280;60001;48.404;11.738;2023-06-10T07:35:13;96034.09;;;22.19;58.23
31357;BME280;60001;48.404;11.738;2023-06-10T07:36:45;96034.88;;;22.19;56.68
31357;BME280;60001;48.404;11.738;2023-06-10T07:38:17;96039.03;;;22.29;56.97
31357;BME280;60001;48.404;11.738;2023-06-10T07:39:49;96034.91;;;22.31;56.81
31357;BME280;60001;48.404;11.738;2023-06-10T07:41:22;96044.78;;;22.39;56.92
31357;BME280;60001;48.404;11.738;2023-06-10T07:42:55;96039.09;;;22.53;57.42
31357;BME280;60001;48.404;11.738;2023-06-10T07:44:27;96039.78;;;22.62;57.24
31357;BME280;60001;48.404;11.738;2023-06-10T07:46:00;96052.56;;;22.65;56.67
31357;BME280;60001;48.404;11.738;2023-06-10T07:47:33;96044.00;;;22.51;55.81
31357;BME280;60001;48.404;11.738;2023-06-10T07:49:05;96037.16;;;22.41;55.30
31357;BME280;60001;48.404;11.738;2023-06-10T07:50:37;96051.19;;;22.47;55.45
31357;BME280;60001;48.404;11.738;2023-06-10T07:52:09;96038.13;;;22.12;55.84
31357;BME280;60001;48.404;11.738;2023-06-10T07:53:40;96035.88;;;22.14;56.51
31357;BME280;60001;48.404;11.738;2023-06-10T07:55:12;96041.53;;;22.34;57.43
31357;BME280;60001;48.404;11.738;2023-06-10T07:56:44;96041.31;;;22.51;56.58
31357;BME280;60001;48.404;11.738;2023-06-10T07:58:16;96046.84;;;22.55;55.99
31357;BME280;60001;48.404;11.738;2023-06-10T07:59:47;96051.31;;;22.63;57.60
31357;BME280;60001;48.404;11.738;2023-06-10T08:01:22;96039.56;;;22.67;56.41
31357;BME280;60001;48.404;11.738;2023-06-10T08:02:54;96046.41;;;22.77;55.83